Time;durP1;ratioP1;P1;durP2;ratioP2;P2;SDS_P1;SDS_P2;PMS_P1;PMS_P2;Temp;Humidity;BMP_temperature;BMP_pressure;BME280_temperature;BME280_humidity;BME280_pressure;Samples;Min_cycle;Max_cycle;Signal;HPM_P1;HPM_P2
2022/05/04 00:00:21;;;;;;;18.17;4.65;;;;;;;4.81;100.00;101980.47;4934314;28;20042;-74
2022/05/04 00:02:46;;;;;;;12.02;3.42;;;;;;;4.89;100.00;101973.44;4923178;28;20047;-73
2022/05/04 00:05:12;;;;;;;16.42;4.13;;;;;;;4.97;100.00;101970.00;4937856;28;20045;-74
2022/05/04 00:07:37;;;;;;;12.93;3.83;;;;;;;5.02;100.00;101968.59;4923493;28;20173;-74
2022/05/04 00:10:04;;;;;;;15.57;3.40;;;;;;;5.11;100.00;101974.00;4937294;28;20067;-74
2022/05/04 00:12:30;;;;;;;18.63;3.30;;;;;;;5.19;100.00;101974.09;4920839;28;20132;-74
2022/05/04 00:14:55;;;;;;;17.10;3.85;;;;;;;5.26;100.00;101977.84;4952182;28;20045;-74
2022/05/04 00:17:20;;;;;;;14.23;3.03;;;;;;;5.34;100.00;101980.63;4921756;28;20104;-74
2022/05/04 00:19:46;;;;;;;13.13;3.25;;;;;;;5.31;100.00;101969.41;4936979;28;20653;-74
2022/05/04 00:22:17;;;;;;;14.20;3.53;;;;;;;5.40;100.00;101984.50;4936163;28;20121;-74
2022/05/04 00:24:42;;;;;;;12.98;3.05;;;;;;;5.46;100.00;101973.22;4921882;28;20050;-74
2022/05/04 00:27:07;;;;;;;16.08;3.17;;;;;;;5.58;100.00;101976.50;4936475;28;20073;-74
2022/05/04 00:29:33;;;;;;;16.05;3.45;;;;;;;5.62;100.00;101972.56;4920066;28;20108;-74
2022/05/04 00:31:58;;;;;;;17.10;3.75;;;;;;;5.66;100.00;101965.91;4935658;28;20098;-74
2022/05/04 00:34:24;;;;;;;17.92;3.70;;;;;;;5.69;100.00;101965.59;4918174;28;20061;-74
2022/05/04 00:36:49;;;;;;;11.57;2.90;;;;;;;5.74;100.00;101969.47;4933638;28;20042;-74
2022/05/04 00:39:15;;;;;;;16.88;3.53;;;;;;;5.81;100.00;101966.19;4929739;28;20124;-74
2022/05/04 00:41:40;;;;;;;15.18;3.42;;;;;;;5.83;100.00;101964.22;4926046;28;20053;-74
2022/05/04 00:44:05;;;;;;;11.73;2.78;;;;;;;5.82;100.00;101962.53;4933616;28;20045;-74
2022/05/04 00:46:31;;;;;;;9.40;2.50;;;;;;;5.78;100.00;101962.00;4918585;28;20046;-74
2022/05/04 00:48:56;;;;;;;10.52;2.63;;;;;;;5.74;100.00;101963.31;4933671;28;20081;-74
2022/05/04 00:51:22;;;;;;;11.18;3.20;;;;;;;5.75;100.00;101962.28;4901849;28;20232;-74
2022/05/04 00:53:47;;;;;;;14.23;3.25;;;;;;;5.75;100.00;101967.66;4933267;28;20065;-74
2022/05/04 00:56:13;;;;;;;12.43;3.25;;;;;;;5.74;100.00;101961.47;4919916;28;20062;-74
2022/05/04 00:58:54;;;;;;;12.07;3.08;;;;;;;5.78;100.00;101962.00;4934972;28;20061;-74
2022/05/04 01:01:22;;;;;;;11.55;3.10;;;;;;;5.88;100.00;101961.91;4927991;28;20053;-72
2022/05/04 01:03:47;;;;;;;15.93;3.17;;;;;;;5.90;100.00;101960.78;4938807;28;20054;-69
2022/05/04 01:06:12;;;;;;;13.25;3.35;;;;;;;5.93;100.00;101965.84;4932865;28;20038;-69
2022/05/04 01:08:38;;;;;;;12.50;2.78;;;;;;;6.01;100.00;101961.56;4917133;28;20171;-70
2022/05/04 01:11:04;;;;;;;16.15;2.97;;;;;;;6.02;100.00;101953.38;4915242;28;20056;-70
2022/05/04 01:13:30;;;;;;;9.80;2.70;;;;;;;6.03;100.00;101957.72;4918799;28;20053;-69
2022/05/04 01:15:55;;;;;;;11.50;2.28;;;;;;;5.99;100.00;101956.34;4927786;28;20819;-70
2022/05/04 01:18:21;;;;;;;12.30;3.03;;;;;;;6.04;100.00;101961.22;4932418;28;20050;-70
2022/05/04 01:20:46;;;;;;;13.63;3.50;;;;;;;6.04;100.00;101961.22;4934177;28;20049;-70
2022/05/04 01:23:13;;;;;;;13.20;3.40;;;;;;;6.05;100.00;101962.91;4933172;28;20129;-70
2022/05/04 01:25:38;;;;;;;10.55;3.33;;;;;;;6.10;100.00;101960.59;4937018;28;20089;-70
2022/05/04 01:28:07;;;;;;;12.25;2.70;;;;;;;6.02;100.00;101958.72;4933476;28;20035;-70
2022/05/04 01:30:34;;;;;;;10.07;2.63;;;;;;;6.03;100.00;101959.56;4899201;28;20141;-70
2022/05/04 01:33:00;;;;;;;8.52;2.33;;;;;;;6.01;100.00;101957.03;4917019;28;20048;-70
2022/05/04 01:35:25;;;;;;;14.82;3.20;;;;;;;6.02;100.00;101957.88;4915221;28;20050;-70
2022/05/04 01:37:51;;;;;;;17.08;3.13;;;;;;;6.06;100.00;101959.25;4932115;28;20077;-70
2022/05/04 01:40:16;;;;;;;13.32;2.78;;;;;;;6.04;100.00;101946.03;4916361;28;20045;-70
2022/05/04 01:42:42;;;;;;;12.63;2.85;;;;;;;6.05;100.00;101960.25;4933675;28;20070;-70
2022/05/04 01:45:09;;;;;;;10.55;2.88;;;;;;;6.06;100.00;101953.91;4935816;28;20054;-70
2022/05/04 01:47:35;;;;;;;12.93;2.97;;;;;;;6.13;100.00;101962.97;4917484;28;20261;-70
2022/05/04 01:50:00;;;;;;;12.48;3.58;;;;;;;6.17;100.00;101956.31;4930566;28;20026;-70
2022/05/04 01:52:26;;;;;;;12.68;3.20;;;;;;;6.18;100.00;101953.50;4913972;28;20057;-70
2022/05/04 01:54:52;;;;;;;12.77;2.88;;;;;;;6.17;100.00;101961.66;4931869;28;20141;-70
2022/05/04 01:57:19;;;;;;;14.18;3.00;;;;;;;6.15;100.00;101959.16;4917062;28;20054;-70
2022/05/04 01:59:44;;;;;;;8.02;2.30;;;;;;;6.17;100.00;101958.97;4931089;28;22308;-70
2022/05/04 02:02:10;;;;;;;11.70;2.50;;;;;;;6.14;100.00;101959.28;4917061;28;20048;-70
2022/05/04 02:04:37;;;;;;;12.38;3.08;;;;;;;6.11;100.00;101954.28;4931369;28;20034;-71
2022/05/04 02:07:03;;;;;;;10.25;2.95;;;;;;;6.11;100.00;101956.97;4930287;28;20148;-72
2022/05/04 02:09:28;;;;;;;10.25;3.10;;;;;;;6.10;100.00;101952.56;4924601;28;20054;-70
2022/05/04 02:11:54;;;;;;;15.02;3.42;;;;;;;6.13;100.00;101957.63;4923828;28;20267;-70
2022/05/04 02:14:20;;;;;;;13.20;2.65;;;;;;;6.19;100.00;101948.97;4913990;28;20072;-70
2022/05/04 02:16:45;;;;;;;11.88;2.88;;;;;;;6.25;100.00;101951.03;4930180;28;20046;-68
2022/05/04 02:19:11;;;;;;;10.43;2.55;;;;;;;6.23;100.00;101953.00;4914895;28;20062;-70
2022/05/04 02:21:37;;;;;;;10.07;2.60;;;;;;;6.22;100.00;101951.34;4930341;28;25220;-70
2022/05/04 02:24:02;;;;;;;15.77;3.17;;;;;;;6.21;100.00;101942.47;4929675;28;20046;-70
2022/05/04 02:26:28;;;;;;;12.45;3.13;;;;;;;6.20;100.00;101948.81;4918351;28;20514;-70
2022/05/04 02:28:54;;;;;;;12.55;2.50;;;;;;;6.17;100.00;101937.59;4930443;28;20043;-70
2022/05/04 02:31:19;;;;;;;12.63;3.30;;;;;;;6.22;100.00;101938.78;4917319;28;20073;-70
2022/05/04 02:33:47;;;;;;;12.45;2.80;;;;;;;6.29;100.00;101933.66;4946806;28;20044;-70
2022/05/04 02:38:58;;;;;;;13.23;2.78;;;;;;;6.29;100.00;101935.50;4933305;28;20069;-70
2022/05/04 02:41:23;;;;;;;13.38;3.00;;;;;;;6.25;100.00;101932.31;4916806;28;20069;-73
2022/05/04 02:43:49;;;;;;;8.77;2.20;;;;;;;6.20;100.00;101934.59;4933755;28;20057;-73
2022/05/04 02:46:19;;;;;;;13.23;2.90;;;;;;;6.13;100.00;101922.84;4928078;28;20514;-73
2022/05/04 02:48:48;;;;;;;11.52;2.38;;;;;;;6.10;100.00;101925.81;4921244;28;20089;-72
2022/05/04 02:51:14;;;;;;;8.15;2.33;;;;;;;6.08;100.00;101925.16;4930527;28;20030;-72
2022/05/04 02:53:39;;;;;;;20.92;3.20;;;;;;;6.05;100.00;101920.13;4913069;28;20046;-72
2022/05/04 02:56:05;;;;;;;11.48;3.00;;;;;;;6.04;100.00;101930.00;4912193;28;20034;-72
2022/05/04 02:58:31;;;;;;;13.75;3.20;;;;;;;6.03;100.00;101927.44;4913931;28;20109;-73
2022/05/04 03:03:55;;;;;;;13.23;3.08;;;;;;;6.03;100.00;101922.94;4915928;28;20149;-72
2022/05/04 03:06:21;;;;;;;15.23;2.88;;;;;;;6.06;100.00;101916.44;4930207;28;20053;-73
2022/05/04 03:08:46;;;;;;;16.38;3.10;;;;;;;6.10;100.00;101926.66;4918881;28;20072;-73
2022/05/04 03:13:57;;;;;;;11.73;2.50;;;;;;;6.17;100.00;101914.34;4920640;28;20034;-72
2022/05/04 03:16:22;;;;;;;10.88;2.80;;;;;;;6.13;100.00;101920.16;4930342;28;20050;-72
2022/05/04 03:18:48;;;;;;;8.68;2.15;;;;;;;6.12;100.00;101911.31;4932018;28;20462;-73
2022/05/04 03:21:13;;;;;;;9.02;2.67;;;;;;;6.13;100.00;101912.16;4926752;28;21096;-70
2022/05/04 03:23:39;;;;;;;10.93;2.42;;;;;;;6.10;100.00;101902.59;4930294;28;20034;-70
2022/05/04 03:26:08;;;;;;;14.60;2.97;;;;;;;6.11;100.00;101914.16;4929917;28;20256;-70
2022/05/04 03:28:33;;;;;;;10.85;2.60;;;;;;;6.10;100.00;101915.13;4911450;28;20129;-70
2022/05/04 03:30:59;;;;;;;14.15;3.28;;;;;;;6.11;100.00;101903.44;4915239;28;20073;-70
2022/05/04 03:33:24;;;;;;;14.20;3.22;;;;;;;6.14;100.00;101913.81;4929915;28;20610;-70
2022/05/04 03:35:49;;;;;;;9.50;2.67;;;;;;;6.22;100.00;101903.19;4927519;28;20026;-71
2022/05/04 03:38:15;;;;;;;16.55;3.28;;;;;;;6.28;100.00;101909.72;4916241;28;20132;-71
2022/05/04 03:40:40;;;;;;;15.68;2.78;;;;;;;6.26;100.00;101904.53;4933707;28;20062;-71
2022/05/04 03:43:06;;;;;;;9.48;2.53;;;;;;;6.25;100.00;101910.91;4916980;28;20046;-71
2022/05/04 03:45:32;;;;;;;11.60;2.60;;;;;;;6.26;100.00;101912.56;4927610;28;20041;-71
2022/05/04 03:47:58;;;;;;;11.30;2.90;;;;;;;6.19;100.00;101908.84;4918425;28;23480;-71
2022/05/04 03:50:23;;;;;;;12.43;2.70;;;;;;;6.17;100.00;101908.16;4930147;28;20125;-71
2022/05/04 03:52:48;;;;;;;17.17;3.63;;;;;;;6.18;100.00;101910.69;4915315;28;20042;-71
2022/05/04 03:55:14;;;;;;;11.52;3.08;;;;;;;6.19;100.00;101903.50;4928062;28;20086;-71
2022/05/04 03:57:39;;;;;;;13.05;2.95;;;;;;;6.18;100.00;101899.16;4926962;28;20063;-71
2022/05/04 04:00:09;;;;;;;11.77;3.38;;;;;;;6.22;100.00;101901.34;4913663;28;20256;-71
2022/05/04 04:02:35;;;;;;;14.63;3.15;;;;;;;6.25;100.00;101913.56;4924831;28;20109;-72
2022/05/04 04:05:01;;;;;;;10.35;2.67;;;;;;;6.23;100.00;101912.88;4915337;28;20077;-72
2022/05/04 04:07:26;;;;;;;9.82;2.85;;;;;;;6.23;100.00;101912.88;4933807;28;20045;-72
2022/05/04 04:09:52;;;;;;;9.98;2.67;;;;;;;6.23;100.00;101910.19;4913292;28;20074;-72
2022/05/04 04:12:17;;;;;;;17.08;3.33;;;;;;;6.25;100.00;101910.91;4932505;28;20030;-72
2022/05/04 04:14:43;;;;;;;9.77;3.00;;;;;;;6.25;100.00;101908.22;4910256;28;20149;-72
2022/05/04 04:17:08;;;;;;;15.45;2.90;;;;;;;6.23;100.00;101904.84;4924450;28;20050;-74
2022/05/04 04:19:34;;;;;;;15.25;3.65;;;;;;;6.26;100.00;101907.22;4933672;28;20037;-74
2022/05/04 04:21:59;;;;;;;13.90;2.80;;;;;;;6.26;100.00;101912.56;4927544;28;20168;-73
2022/05/04 04:24:24;;;;;;;7.18;2.60;;;;;;;6.25;100.00;101905.53;4932990;28;20042;-73
2022/05/04 04:26:50;;;;;;;9.95;2.58;;;;;;;6.32;100.00;101909.25;4934990;28;20042;-73
2022/05/04 04:29:16;;;;;;;12.25;2.90;;;;;;;6.34;100.00;101909.09;4936027;28;20033;-73
2022/05/04 04:31:41;;;;;;;13.90;3.15;;;;;;;6.34;100.00;101915.28;4918880;28;20051;-74
2022/05/04 04:34:07;;;;;;;10.52;2.65;;;;;;;6.34;100.00;101909.94;4932881;28;22362;-74
2022/05/04 04:36:33;;;;;;;11.00;3.40;;;;;;;6.41;100.00;101908.28;4945740;28;20036;-74
2022/05/04 04:38:58;;;;;;;7.78;2.92;;;;;;;6.50;100.00;101913.72;4915164;28;20153;-74
2022/05/04 04:41:24;;;;;;;13.18;2.70;;;;;;;6.56;100.00;101915.72;4935173;28;20038;-74
2022/05/04 04:43:49;;;;;;;10.45;2.78;;;;;;;6.61;100.00;101914.25;4920577;28;20744;-74
2022/05/04 04:46:14;;;;;;;18.25;2.90;;;;;;;6.70;100.00;101915.09;4934751;28;20042;-74
2022/05/04 04:48:40;;;;;;;17.00;3.65;;;;;;;6.76;100.00;101919.00;4917729;28;22324;-74
2022/05/04 04:51:06;;;;;;;13.68;3.47;;;;;;;6.81;100.00;101922.00;4935395;28;20125;-74
2022/05/04 04:53:31;;;;;;;12.80;2.67;;;;;;;6.89;100.00;101914.88;4916829;28;20070;-74
2022/05/04 04:55:57;;;;;;;12.93;3.50;;;;;;;6.97;100.00;101922.09;4934287;28;20048;-74
2022/05/04 04:58:23;;;;;;;12.70;3.10;;;;;;;6.99;100.00;101924.63;4935640;28;20097;-72
2022/05/04 05:00:48;;;;;;;11.90;3.15;;;;;;;7.05;100.00;101923.94;4919102;28;20054;-71
2022/05/04 05:03:14;;;;;;;14.90;2.80;;;;;;;7.07;100.00;101927.31;4933428;28;20026;-72
2022/05/04 05:05:41;;;;;;;9.07;2.25;;;;;;;7.11;100.00;101917.94;4919812;28;20077;-71
2022/05/04 05:08:07;;;;;;;8.55;2.70;;;;;;;7.24;100.00;101918.31;4931753;28;20026;-71
2022/05/04 05:10:32;;;;;;;11.90;2.75;;;;;;;7.31;100.00;101924.69;4919852;28;20055;-71
2022/05/04 05:12:58;;;;;;;10.38;2.50;;;;;;;7.40;100.00;101929.03;4927778;28;20051;-71
2022/05/04 05:18:07;;;;;;;11.77;2.50;;;;;;;7.55;100.00;101931.09;4933966;28;20043;-71
2022/05/04 05:20:33;;;;;;;9.85;2.47;;;;;;;7.61;100.00;101930.41;4920544;28;20703;-72
2022/05/04 05:23:00;;;;;;;10.23;2.42;;;;;;;7.57;100.00;101921.03;4914616;28;20050;-71
2022/05/04 05:25:25;;;;;;;14.32;3.85;;;;;;;7.73;100.00;101929.06;4932909;28;20042;-71
2022/05/04 05:27:50;;;;;;;13.10;2.80;;;;;;;7.75;100.00;101937.78;4909451;28;20052;-72
2022/05/04 05:30:16;;;;;;;11.63;2.03;;;;;;;7.87;100.00;101931.09;4947694;28;20550;-72
2022/05/04 05:32:41;;;;;;;9.65;2.13;;;;;;;7.85;100.00;101927.72;4932581;28;20081;-71
2022/05/04 05:35:07;;;;;;;12.07;2.53;;;;;;;7.80;100.00;101924.72;4932868;28;20145;-70
2022/05/04 05:37:33;;;;;;;9.05;2.63;;;;;;;7.89;100.00;101937.09;4933364;28;20585;-71
2022/05/04 05:39:58;;;;;;;13.85;2.92;;;;;;;7.93;100.00;101932.25;4918427;28;23660;-71
2022/05/04 05:42:24;;;;;;;15.80;3.13;;;;;;;8.01;100.00;101931.41;4933098;28;20042;-71
2022/05/04 05:44:49;;;;;;;10.98;2.63;;;;;;;8.04;100.00;101925.72;4919357;28;20177;-71
2022/05/04 05:47:15;;;;;;;12.27;2.30;;;;;;;8.12;100.00;101933.75;4928447;28;20045;-71
2022/05/04 05:49:40;;;;;;;11.18;2.42;;;;;;;8.14;100.00;101937.09;4918471;28;22695;-70
2022/05/04 05:52:09;;;;;;;10.77;2.25;;;;;;;8.24;96.75;101927.00;4930926;28;20046;-71
2022/05/04 05:54:35;;;;;;;15.18;2.22;;;;;;;8.29;92.22;101927.34;4910714;28;20049;-71
2022/05/04 05:57:00;;;;;;;11.65;2.20;;;;;;;8.32;91.94;101929.69;4946705;28;20041;-71
2022/05/04 05:59:25;;;;;;;13.98;2.97;;;;;;;8.41;93.67;101930.53;4932482;28;20181;-71
2022/05/04 06:01:51;;;;;;;11.82;2.58;;;;;;;8.46;93.51;101927.31;4912757;28;20322;-71
2022/05/04 06:04:16;;;;;;;10.93;2.33;;;;;;;8.56;98.68;101936.88;4930572;28;20042;-71
2022/05/04 06:06:42;;;;;;;12.23;2.40;;;;;;;8.61;99.10;101933.66;4915886;28;20058;-71
2022/05/04 06:09:07;;;;;;;15.23;2.47;;;;;;;8.66;97.39;101928.59;4930668;28;20035;-71
2022/05/04 06:11:34;;;;;;;9.88;2.90;;;;;;;8.68;91.67;101929.28;4917845;28;20108;-71
2022/05/04 06:14:00;;;;;;;11.98;2.70;;;;;;;8.82;84.80;101930.38;4929506;28;21011;-71
2022/05/04 06:16:25;;;;;;;12.32;2.53;;;;;;;8.83;87.08;101927.50;4943331;28;20077;-71
2022/05/04 06:18:50;;;;;;;13.90;2.08;;;;;;;8.88;82.62;101926.16;4903150;28;20050;-71
2022/05/04 06:21:16;;;;;;;7.15;1.83;;;;;;;8.93;82.36;101927.31;4932659;28;20045;-72
2022/05/04 06:23:41;;;;;;;12.75;2.55;;;;;;;9.04;81.13;101928.75;4917992;28;20521;-71
2022/05/04 06:26:07;;;;;;;9.43;1.95;;;;;;;9.04;80.77;101918.84;4933405;28;20042;-72
2022/05/04 06:28:32;;;;;;;10.70;2.25;;;;;;;9.17;81.58;101928.19;4930578;28;20129;-71
2022/05/04 06:36:26;;;;;;;;;;;;;;;9.51;70.82;101927.78;4932074;28;20045;-72
2022/05/04 06:38:52;;;;;;;8.10;2.00;;;;;;;9.54;68.13;101930.13;4916421;28;20341;-74
2022/05/04 06:41:18;;;;;;;14.40;2.60;;;;;;;9.50;69.06;101923.44;4944790;28;20041;-74
2022/05/04 06:43:43;;;;;;;11.90;2.20;;;;;;;9.55;68.20;101931.81;4939777;28;20544;-74
2022/05/04 06:46:09;;;;;;;11.65;2.10;;;;;;;9.57;70.73;101929.75;4917855;28;20089;-74
2022/05/04 06:48:34;;;;;;;9.73;1.85;;;;;;;9.68;69.63;101932.03;4932822;28;20031;-74
2022/05/04 06:51:00;;;;;;;17.83;3.28;;;;;;;9.87;67.38;101930.72;4908249;28;20055;-74
2022/05/04 06:53:25;;;;;;;8.35;2.40;;;;;;;10.05;65.13;101930.38;4925453;28;20046;-74
2022/05/04 06:55:51;;;;;;;9.32;2.60;;;;;;;9.96;65.86;101936.84;4905154;28;24528;-74
2022/05/04 06:58:16;;;;;;;9.30;2.50;;;;;;;9.95;65.89;101932.50;4922375;28;20059;-74
2022/05/04 07:00:41;;;;;;;6.28;2.10;;;;;;;9.90;66.01;101941.13;4921458;28;20056;-73
2022/05/04 07:03:07;;;;;;;13.18;2.55;;;;;;;10.08;65.17;101937.25;4918670;28;20076;-73
2022/05/04 07:05:33;;;;;;;8.80;1.95;;;;;;;10.15;62.87;101939.03;4930919;28;20643;-74
2022/05/04 07:07:58;;;;;;;9.45;1.92;;;;;;;10.05;63.78;101943.84;4913900;28;20177;-73
2022/05/04 07:10:23;;;;;;;10.88;2.00;;;;;;;10.19;62.66;101940.34;4930327;28;20084;-75
2022/05/04 07:12:50;;;;;;;15.07;2.45;;;;;;;10.38;62.40;101938.16;4926863;28;20398;-74
2022/05/04 07:15:16;;;;;;;9.05;2.22;;;;;;;10.41;61.64;101943.16;4931568;28;20077;-73
2022/05/04 07:17:41;;;;;;;14.07;2.80;;;;;;;10.50;61.92;101942.06;4914650;28;20046;-74
2022/05/04 07:20:08;;;;;;;11.27;2.20;;;;;;;10.70;61.71;101943.16;4935220;28;20045;-74
2022/05/04 07:22:34;;;;;;;9.45;2.15;;;;;;;10.70;61.55;101937.78;4937743;28;20034;-75
2022/05/04 07:25:00;;;;;;;11.55;2.63;;;;;;;10.93;58.23;101931.44;4921147;28;20058;-75
2022/05/04 07:27:25;;;;;;;10.52;2.63;;;;;;;10.99;56.71;101931.53;4934723;28;20081;-74
2022/05/04 07:29:51;;;;;;;9.68;2.83;;;;;;;11.13;56.45;101937.09;4915602;28;20869;-75
2022/05/04 07:32:16;;;;;;;11.95;2.00;;;;;;;11.32;56.46;101935.63;4930425;28;20038;-75
2022/05/04 07:34:42;;;;;;;12.98;2.55;;;;;;;11.36;55.63;101940.44;4914161;28;20047;-75
2022/05/04 07:37:07;;;;;;;9.48;2.70;;;;;;;11.62;54.94;101941.75;4933680;28;20041;-75
2022/05/04 07:42:21;;;;;;;9.10;2.13;;;;;;;11.88;52.62;101946.56;4933514;28;20073;-75
2022/05/04 07:44:51;;;;;;;13.38;2.30;;;;;;;11.89;52.52;101950.94;4928402;28;20022;-74
2022/05/04 07:47:17;;;;;;;9.38;2.22;;;;;;;11.95;52.69;101942.06;4937317;28;20083;-75
2022/05/04 07:49:43;;;;;;;12.38;2.33;;;;;;;12.01;52.37;101946.69;4931506;28;20112;-75
2022/05/04 07:52:08;;;;;;;15.77;2.55;;;;;;;12.15;51.98;101953.88;4922004;28;20070;-73
2022/05/04 07:54:34;;;;;;;7.18;2.45;;;;;;;12.36;51.59;101947.56;4928566;28;20344;-73
2022/05/04 07:56:59;;;;;;;7.95;1.88;;;;;;;12.63;50.97;101953.97;4920081;28;20054;-74
2022/05/04 07:59:25;;;;;;;9.52;2.50;;;;;;;13.04;48.69;101957.72;4935795;28;20054;-74
2022/05/04 08:04:34;;;;;;;13.35;3.10;;;;;;;13.54;46.34;101956.41;4933302;28;20066;-73
2022/05/04 08:07:01;;;;;;;8.93;2.03;;;;;;;13.77;47.03;101949.81;4928602;28;20034;-73
2022/05/04 08:09:26;;;;;;;15.43;2.50;;;;;;;13.90;46.76;101948.97;4923861;28;20058;-71
2022/05/04 08:11:52;;;;;;;11.20;2.20;;;;;;;13.96;46.43;101948.97;4934991;28;20125;-72
2022/05/04 08:14:18;;;;;;;15.77;2.33;;;;;;;14.50;46.55;101953.34;4920288;28;20082;-71
2022/05/04 08:16:44;;;;;;;6.45;1.83;;;;;;;15.16;44.16;101946.00;4935242;28;20042;-70
2022/05/04 08:19:09;;;;;;;10.20;2.13;;;;;;;15.10;44.72;101953.13;4916198;28;20270;-70
2022/05/04 08:21:37;;;;;;;8.45;2.28;;;;;;;15.02;43.55;101951.50;4949527;28;20486;-70
2022/05/04 08:24:03;;;;;;;9.05;2.33;;;;;;;14.91;43.33;101954.88;4921056;28;20150;-71
2022/05/04 08:26:28;;;;;;;8.68;2.08;;;;;;;15.20;43.27;101958.94;4933873;28;20169;-71
2022/05/04 08:28:54;;;;;;;8.40;2.20;;;;;;;15.08;43.77;101962.53;4931177;28;21096;-70
2022/05/04 08:31:21;;;;;;;9.43;2.45;;;;;;;14.73;43.68;101962.88;4920151;28;20062;-70
2022/05/04 08:33:48;;;;;;;8.80;2.38;;;;;;;14.45;44.78;101965.81;4930775;28;20030;-70
2022/05/04 08:36:13;;;;;;;9.65;2.40;;;;;;;14.14;44.41;101961.88;4916865;28;20058;-71
2022/05/04 08:38:39;;;;;;;10.05;2.08;;;;;;;13.65;45.30;101959.56;4933571;28;20493;-71
2022/05/04 08:41:04;;;;;;;14.27;2.50;;;;;;;13.54;45.42;101963.72;4920551;28;20057;-71
2022/05/04 08:43:32;;;;;;;13.57;2.33;;;;;;;13.73;45.73;101964.81;4935565;28;20046;-71
2022/05/04 08:46:02;;;;;;;8.38;2.35;;;;;;;13.91;45.91;101964.19;4898844;28;20046;-70
2022/05/04 08:48:30;;;;;;;10.25;2.30;;;;;;;14.22;44.66;101961.69;4933919;28;20144;-70
2022/05/04 08:51:03;;;;;;;15.43;2.60;;;;;;;14.49;44.26;101962.47;4947185;28;20050;-71
2022/05/04 08:53:29;;;;;;;10.73;2.40;;;;;;;16.03;43.83;101960.69;4919959;28;20042;-71
2022/05/04 08:55:55;;;;;;;11.60;2.25;;;;;;;16.59;41.38;101956.19;4933836;28;20069;-71
2022/05/04 08:58:20;;;;;;;11.77;2.78;;;;;;;16.73;39.40;101956.88;4917068;28;20050;-71
2022/05/04 09:00:46;;;;;;;14.02;2.53;;;;;;;16.59;39.92;101967.06;4931150;28;20065;-71
2022/05/04 09:03:12;;;;;;;15.43;2.47;;;;;;;16.04;40.37;101959.66;4919354;28;20064;-71
2022/05/04 09:05:42;;;;;;;11.43;3.00;;;;;;;15.03;42.21;101963.19;4929322;28;20038;-72
2022/05/04 09:08:09;;;;;;;9.98;2.22;;;;;;;14.80;43.09;101955.53;4917954;28;20061;-72
2022/05/04 09:10:40;;;;;;;13.65;2.70;;;;;;;14.89;42.54;101959.69;4929865;28;20042;-72
2022/05/04 09:13:06;;;;;;;9.65;2.55;;;;;;;14.97;43.15;101958.63;4923043;28;20213;-72
2022/05/04 09:15:34;;;;;;;8.02;2.13;;;;;;;15.13;42.45;101968.13;4896274;28;20073;-72
2022/05/04 09:18:05;;;;;;;10.93;2.05;;;;;;;15.01;42.31;101959.84;4908263;28;20034;-72
2022/05/04 09:20:47;;;;;;;15.15;3.13;;;;;;;14.75;42.90;101961.63;4916290;28;20061;-72
2022/05/04 09:23:14;;;;;;;11.10;2.85;;;;;;;14.48;44.12;101963.50;4928217;28;20119;-72
2022/05/04 09:25:40;;;;;;;8.15;2.05;;;;;;;14.36;43.38;101961.69;4917000;28;22647;-72
2022/05/04 09:28:11;;;;;;;10.23;2.85;;;;;;;14.46;43.15;101962.06;4933459;28;20038;-72
2022/05/04 09:30:37;;;;;;;5.13;1.77;;;;;;;14.82;42.30;101960.75;4915407;28;20053;-72
2022/05/04 09:33:09;;;;;;;10.57;2.13;;;;;;;14.85;42.40;101963.88;4932026;28;20202;-72
2022/05/04 09:35:34;;;;;;;9.52;2.03;;;;;;;15.31;43.10;101960.13;4919369;28;20042;-72
2022/05/04 09:46:39;;;;;;;10.82;2.72;;;;;;;17.47;38.46;101944.00;4930437;28;20042;-70
2022/05/04 09:49:10;;;;;;;12.07;2.70;;;;;;;18.47;37.20;101943.22;4932235;28;20034;-72
2022/05/04 09:51:35;;;;;;;11.15;3.40;;;;;;;18.93;35.41;101936.03;4934318;28;20074;-72
2022/05/04 09:54:20;;;;;;;9.23;2.35;;;;;;;18.39;36.24;101938.09;4916628;28;20145;-72
2022/05/04 09:56:51;;;;;;;11.40;2.50;;;;;;;17.72;37.03;101939.22;4933282;28;20042;-72
2022/05/04 09:59:18;;;;;;;12.35;3.63;;;;;;;16.98;38.09;101941.31;4918741;28;20049;-72
2022/05/04 10:01:45;;;;;;;10.02;3.10;;;;;;;16.50;39.42;101947.50;4933599;28;20046;-72
2022/05/04 10:04:10;;;;;;;8.73;2.75;;;;;;;16.34;39.21;101938.03;4914410;28;20148;-72
2022/05/04 10:06:36;;;;;;;15.93;3.58;;;;;;;15.78;39.49;101928.09;4929771;28;20065;-71
2022/05/04 10:09:06;;;;;;;16.30;5.65;;;;;;;15.27;41.61;101931.75;4916897;28;20421;-70
2022/05/04 10:11:35;;;;;;;10.77;3.38;;;;;;;15.42;41.27;101934.16;4926302;28;20137;-71
2022/05/04 10:14:05;;;;;;;11.05;2.53;;;;;;;15.29;41.33;101935.06;4922487;28;22835;-70
2022/05/04 10:16:35;;;;;;;11.88;2.45;;;;;;;15.39;41.95;101932.72;4924808;28;20034;-70
2022/05/04 10:19:02;;;;;;;11.70;3.42;;;;;;;15.59;41.27;101929.06;4923865;28;20061;-71
2022/05/04 10:21:28;;;;;;;10.48;2.60;;;;;;;15.40;41.56;101930.81;4904212;28;20038;-71
2022/05/04 10:23:57;;;;;;;12.93;2.53;;;;;;;15.30;42.46;101925.88;4924263;28;20038;-71
2022/05/04 10:26:38;;;;;;;9.50;2.65;;;;;;;15.51;41.68;101933.69;4907957;28;20047;-70
2022/05/04 10:32:35;;;;;;;8.02;2.20;;;;;;;15.48;42.13;101928.69;4912982;28;20805;-71
2022/05/04 10:35:33;;;;;;;9.50;2.42;;;;;;;16.25;41.44;101923.09;4926422;28;20045;-71
2022/05/04 10:37:59;;;;;;;10.57;2.78;;;;;;;17.02;38.14;101928.09;4908090;28;20047;-71
2022/05/04 10:40:31;;;;;;;12.50;3.20;;;;;;;17.24;37.91;101910.19;4925238;28;20054;-71
2022/05/04 10:43:02;;;;;;;11.90;2.72;;;;;;;16.79;40.05;101917.91;4910309;28;20177;-71
2022/05/04 10:45:32;;;;;;;7.53;2.65;;;;;;;16.69;39.41;101919.25;4931992;28;20038;-71
2022/05/04 10:48:19;;;;;;;9.98;2.60;;;;;;;16.31;39.71;101911.28;4907972;28;20073;-71
2022/05/04 10:50:54;;;;;;;8.73;2.70;;;;;;;16.03;40.46;101911.78;4926074;28;20034;-71
2022/05/04 10:53:23;;;;;;;17.75;7.15;;;;;;;16.40;40.26;101920.84;4910813;28;20145;-71
2022/05/04 10:56:02;;;;;;;11.73;5.47;;;;;;;16.63;39.66;101920.16;4924170;28;20237;-71
2022/05/04 10:58:37;;;;;;;15.25;4.85;;;;;;;16.03;40.98;101913.66;4908105;28;20134;-71
2022/05/04 11:01:11;;;;;;;11.75;2.80;;;;;;;15.80;41.45;101917.84;4926333;28;20522;-71
2022/05/04 11:03:38;;;;;;;11.02;2.75;;;;;;;15.69;42.09;101918.56;4925054;28;20108;-71
2022/05/04 11:06:09;;;;;;;8.88;2.42;;;;;;;16.07;40.76;101914.88;4914520;28;20038;-71
2022/05/04 11:08:36;;;;;;;12.70;2.65;;;;;;;16.25;41.03;101917.66;4926571;28;20050;-72
2022/05/04 11:11:03;;;;;;;10.90;2.90;;;;;;;15.69;41.33;101907.69;4910508;28;20196;-72
2022/05/04 11:13:30;;;;;;;10.75;2.65;;;;;;;15.12;42.12;101917.63;4924959;28;20038;-71
2022/05/04 11:15:58;;;;;;;11.38;3.20;;;;;;;14.95;42.91;101912.72;4909682;28;20478;-71
2022/05/04 11:18:24;;;;;;;9.43;2.55;;;;;;;16.12;41.32;101912.34;4924400;28;20039;-71
2022/05/04 11:20:50;;;;;;;10.90;3.08;;;;;;;17.12;38.90;101909.31;4911263;28;20105;-72
2022/05/04 11:23:23;;;;;;;13.10;2.90;;;;;;;17.62;38.88;101906.28;4920855;28;20038;-72
2022/05/04 11:25:49;;;;;;;;;;;;;;;18.33;36.86;101902.56;4922364;28;20038;-71
2022/05/04 11:28:25;;;;;;;10.30;3.75;;;;;;;18.98;36.23;101909.66;4915967;28;23499;-72
2022/05/04 11:30:54;;;;;;;13.18;3.97;;;;;;;18.99;36.37;101902.28;4941946;28;20049;-72
2022/05/04 11:33:21;;;;;;;9.30;2.65;;;;;;;19.55;35.13;101906.06;4908881;28;20037;-72
2022/05/04 11:35:54;;;;;;;13.50;3.67;;;;;;;19.25;35.75;101907.16;4910068;28;20045;-72
2022/05/04 11:38:20;;;;;;;;;;;;;;;19.56;35.12;101905.00;4910609;28;20073;-72
2022/05/04 11:40:47;;;;;;;11.05;3.00;;;;;;;19.69;35.38;101904.69;4925566;28;22227;-72
2022/05/04 11:43:28;;;;;;;8.48;2.67;;;;;;;19.42;35.69;101890.00;4909783;28;20072;-72
2022/05/04 11:45:54;;;;;;;14.30;3.55;;;;;;;19.76;34.69;101893.56;4921608;28;20045;-72
2022/05/04 11:48:21;;;;;;;9.80;2.50;;;;;;;19.60;35.46;101895.22;4904749;28;20751;-73
2022/05/04 11:50:47;;;;;;;10.25;3.15;;;;;;;19.76;34.00;101888.97;4906433;28;20081;-72
2022/05/04 11:53:13;;;;;;;12.63;2.88;;;;;;;19.62;35.03;101892.22;4925309;28;20026;-73